Wetterdaten: Woche 18.04.16 - 24.04.16 (KW16)
Datum Zeit Temp. A. Feuchte A. Luftdruck Regen Wind Richtung Taupunkt Windchill Windben
18.04.2016 00:00 3,9 C 96 % 1017,0 hPa 0,0 l/m 0,1 km/h (0 Bft) W-NW 3,4 C 3,9 C 0,8 km/h (0 Bft)
18.04.2016 01:00 3,8 C 97 % 1017,7 hPa 0,0 l/m 0,1 km/h (0 Bft) S 3,4 C 3,8 C 1,1 km/h (0 Bft)
18.04.2016 02:00 3,8 C 97 % 1017,7 hPa 0,0 l/m 0,1 km/h (0 Bft) S 3,4 C 3,8 C 0,6 km/h (0 Bft)
18.04.2016 03:00 3,8 C 97 % 1017,7 hPa 0,3 l/m 0,3 km/h (0 Bft) S 3,3 C 3,8 C 1,2 km/h (1 Bft)
18.04.2016 04:00 3,4 C 96 % 1017,9 hPa 0,0 l/m 0,3 km/h (0 Bft) S-SW 2,9 C 3,4 C 1,6 km/h (1 Bft)
18.04.2016 05:00 3,3 C 96 % 1018,0 hPa 0,0 l/m 0,2 km/h (0 Bft) S-SW 2,8 C 3,3 C 1,6 km/h (1 Bft)
18.04.2016 06:00 3,3 C 97 % 1018,1 hPa 0,0 l/m 0,7 km/h (0 Bft) O-SO 2,9 C 3,3 C 1,7 km/h (1 Bft)
18.04.2016 07:00 3,5 C 97 % 1018,7 hPa 0,0 l/m 0,2 km/h (0 Bft) O-SO 3,0 C 3,5 C 1,2 km/h (1 Bft)
18.04.2016 08:00 4,0 C 96 % 1019,2 hPa 0,0 l/m 1,0 km/h (0 Bft) W-NW 3,3 C 4,0 C 3,1 km/h (1 Bft)
18.04.2016 09:00 4,2 C 94 % 1019,4 hPa 0,0 l/m 1,1 km/h (1 Bft) W-NW 3,4 C 4,2 C 3,2 km/h (1 Bft)
18.04.2016 10:00 4,7 C 94 % 1019,8 hPa 0,0 l/m 1,4 km/h (1 Bft) W-NW 3,8 C 4,7 C 4,1 km/h (1 Bft)
18.04.2016 11:00 5,3 C 92 % 1019,9 hPa 0,0 l/m 2,4 km/h (1 Bft) W-NW 4,1 C 5,3 C 5,4 km/h (2 Bft)
18.04.2016 12:00 5,9 C 91 % 1020,0 hPa 0,0 l/m 1,8 km/h (1 Bft) SW 4,5 C 5,9 C 4,9 km/h (1 Bft)
18.04.2016 13:00 6,7 C 90 % 1020,3 hPa 0,0 l/m 1,6 km/h (1 Bft) S-SO 5,1 C 6,7 C 4,7 km/h (1 Bft)
18.04.2016 14:00 6,6 C 90 % 1020,7 hPa 1,0 l/m 2,3 km/h (1 Bft) O-NO 5,0 C 6,6 C 5,1 km/h (1 Bft)
18.04.2016 15:00 6,0 C 93 % 1021,2 hPa 2,5 l/m 1,3 km/h (1 Bft) O-NO 4,9 C 6,0 C 3,2 km/h (1 Bft)
18.04.2016 16:00 6,5 C 93 % 1021,1 hPa 0,5 l/m 2,9 km/h (1 Bft) O-NO 5,4 C 6,5 C 6,0 km/h (2 Bft)
18.04.2016 17:00 8,0 C 89 % 1021,2 hPa 0,0 l/m 2,5 km/h (1 Bft) O-SO 6,3 C 8,0 C 6,6 km/h (2 Bft)
18.04.2016 18:00 7,7 C 88 % 1021,6 hPa 0,0 l/m 2,4 km/h (1 Bft) O 5,9 C 7,7 C 4,9 km/h (1 Bft)
18.04.2016 19:00 6,6 C 91 % 1022,2 hPa 0,0 l/m 1,5 km/h (1 Bft) O 5,2 C 6,6 C 4,0 km/h (1 Bft)
18.04.2016 20:00 5,9 C 93 % 1022,9 hPa 0,0 l/m 0,5 km/h (0 Bft) O-SO 4,8 C 5,9 C 2,5 km/h (1 Bft)
18.04.2016 21:00 5,6 C 94 % 1023,5 hPa 0,0 l/m 0,4 km/h (0 Bft) O-SO 4,7 C 5,6 C 1,8 km/h (1 Bft)
18.04.2016 22:00 5,3 C 95 % 1024,1 hPa 0,0 l/m 0,6 km/h (0 Bft) O 4,6 C 5,3 C 2,1 km/h (1 Bft)
18.04.2016 23:00 4,9 C 95 % 1024,5 hPa 0,0 l/m 0,1 km/h (0 Bft) O 4,2 C 4,9 C 0,8 km/h (0 Bft)
19.04.2016 00:00 4,2 C 95 % 1024,9 hPa 0,0 l/m 0,1 km/h (0 Bft) O 3,5 C 4,2 C 1,2 km/h (1 Bft)
19.04.2016 01:00 3,7 C 96 % 1025,1 hPa 0,0 l/m 0,4 km/h (0 Bft) O 3,1 C 3,7 C 1,9 km/h (1 Bft)
19.04.2016 02:00 3,0 C 97 % 1025,3 hPa 0,0 l/m 0,1 km/h (0 Bft) O 2,6 C 3,0 C 0,6 km/h (0 Bft)
19.04.2016 03:00 2,5 C 97 % 1025,5 hPa 0,0 l/m 0,2 km/h (0 Bft) O 2,0 C 2,5 C 1,0 km/h (0 Bft)
19.04.2016 04:00 2,1 C 97 % 1025,7 hPa 0,0 l/m 0,2 km/h (0 Bft) O 1,7 C 2,1 C 1,3 km/h (1 Bft)
19.04.2016 05:00 2,1 C 98 % 1025,8 hPa 0,0 l/m 0,8 km/h (0 Bft) O 1,7 C 2,1 C 2,9 km/h (1 Bft)
19.04.2016 06:00 2,1 C 98 % 1026,0 hPa 0,0 l/m 1,2 km/h (1 Bft) O 1,8 C 2,1 C 3,4 km/h (1 Bft)
19.04.2016 07:00 2,0 C 98 % 1026,2 hPa 0,0 l/m 1,3 km/h (1 Bft) O 1,7 C 2,0 C 3,6 km/h (1 Bft)
19.04.2016 08:00 3,1 C 98 % 1026,7 hPa 0,0 l/m 2,3 km/h (1 Bft) NO 2,8 C 3,1 C 4,8 km/h (1 Bft)
19.04.2016 09:00 5,3 C 92 % 1026,9 hPa 0,0 l/m 3,2 km/h (1 Bft) O 4,1 C 5,3 C 6,1 km/h (2 Bft)
19.04.2016 10:00 8,1 C 80 % 1026,8 hPa 0,3 l/m 4,4 km/h (1 Bft) N-NO 4,8 C 8,1 C 9,5 km/h (2 Bft)
19.04.2016 11:00 9,9 C 62 % 1026,6 hPa 0,0 l/m 4,8 km/h (1 Bft) NO 2,9 C 9,9 C 10,0 km/h (2 Bft)
19.04.2016 12:00 10,5 C 56 % 1026,4 hPa 0,0 l/m 5,7 km/h (2 Bft) O-NO 2,1 C 10,3 C 12,1 km/h (2 Bft)
19.04.2016 13:00 11,6 C 54 % 1026,2 hPa 0,0 l/m 5,5 km/h (2 Bft) O-NO 2,7 C 11,5 C 12,5 km/h (2 Bft)
19.04.2016 14:00 12,6 C 51 % 1025,6 hPa 0,0 l/m 4,9 km/h (1 Bft) NO 2,7 C 12,6 C 11,9 km/h (2 Bft)
19.04.2016 15:00 13,3 C 48 % 1025,2 hPa 0,0 l/m 4,3 km/h (1 Bft) NO 2,4 C 13,3 C 9,7 km/h (2 Bft)
19.04.2016 16:00 14,0 C 47 % 1024,9 hPa 0,0 l/m 3,7 km/h (1 Bft) NO 3,0 C 14,0 C 9,8 km/h (2 Bft)
19.04.2016 17:00 14,3 C 49 % 1024,6 hPa 0,0 l/m 4,0 km/h (1 Bft) O-NO 3,8 C 14,3 C 9,1 km/h (2 Bft)
19.04.2016 18:00 13,6 C 51 % 1024,6 hPa 0,0 l/m 4,2 km/h (1 Bft) O-NO 3,6 C 13,6 C 9,3 km/h (2 Bft)
19.04.2016 19:00 11,1 C 61 % 1024,8 hPa 0,0 l/m 3,1 km/h (1 Bft) W-NW 3,9 C 11,1 C 7,8 km/h (2 Bft)
19.04.2016 20:00 9,2 C 66 % 1025,6 hPa 0,0 l/m 1,8 km/h (1 Bft) W-SW 3,2 C 9,2 C 5,4 km/h (2 Bft)
19.04.2016 21:00 8,1 C 70 % 1026,2 hPa 0,0 l/m 0,9 km/h (0 Bft) W 2,9 C 8,1 C 2,6 km/h (1 Bft)
19.04.2016 22:00 6,1 C 82 % 1026,9 hPa 0,0 l/m 0,0 km/h (0 Bft) W 3,2 C 6,1 C 0,4 km/h (0 Bft)
19.04.2016 23:00 4,2 C 87 % 1027,3 hPa 0,0 l/m 0,0 km/h (0 Bft) W 2,3 C 4,2 C 0,0 km/h (0 Bft)
20.04.2016 00:00 2,9 C 90 % 1027,3 hPa 0,0 l/m 0,0 km/h (0 Bft) W 1,5 C 2,9 C 0,0 km/h (0 Bft)
20.04.2016 01:00 1,6 C 93 % 1027,4 hPa 0,0 l/m 0,0 km/h (0 Bft) W 0,5 C 1,6 C 0,0 km/h (0 Bft)
20.04.2016 02:00 0,8 C 94 % 1027,2 hPa 0,0 l/m 0,0 km/h (0 Bft) W -0,1 C 0,8 C 0,1 km/h (0 Bft)
20.04.2016 03:00 0,3 C 94 % 1027,4 hPa 0,0 l/m 0,0 km/h (0 Bft) W -0,6 C 0,3 C 0,0 km/h (0 Bft)
20.04.2016 04:00 -0,5 C 95 % 1027,5 hPa 0,0 l/m 0,0 km/h (0 Bft) W -1,2 C -0,5 C 0,0 km/h (0 Bft)
20.04.2016 05:00 -1,1 C 95 % 1027,5 hPa 0,0 l/m 0,0 km/h (0 Bft) W -1,7 C -1,1 C 0,0 km/h (0 Bft)
20.04.2016 06:00 -1,4 C 96 % 1027,7 hPa 0,0 l/m 0,0 km/h (0 Bft) W -2,0 C -1,4 C 0,0 km/h (0 Bft)
20.04.2016 07:00 -0,9 C 97 % 1028,2 hPa 0,0 l/m 0,1 km/h (0 Bft) W -1,3 C -0,9 C 0,5 km/h (0 Bft)
20.04.2016 08:00 3,8 C 89 % 1028,4 hPa 0,0 l/m 0,9 km/h (0 Bft) W 2,2 C 3,8 C 2,5 km/h (1 Bft)
20.04.2016 09:00 7,7 C 76 % 1028,3 hPa 0,0 l/m 2,8 km/h (1 Bft) NW 3,7 C 7,7 C 6,6 km/h (2 Bft)
20.04.2016 10:00 10,2 C 62 % 1028,2 hPa 0,0 l/m 5,0 km/h (1 Bft) W 3,2 C 10,2 C 13,8 km/h (3 Bft)
20.04.2016 11:00 11,6 C 56 % 1028,1 hPa 0,0 l/m 5,3 km/h (1 Bft) S-SW 3,2 C 11,6 C 11,9 km/h (2 Bft)
20.04.2016 12:00 12,4 C 52 % 1027,9 hPa 0,0 l/m 6,3 km/h (2 Bft) NW 2,8 C 11,8 C 13,5 km/h (3 Bft)
20.04.2016 13:00 13,6 C 49 % 1027,7 hPa 0,0 l/m 4,8 km/h (1 Bft) NW 3,0 C 13,6 C 12,2 km/h (2 Bft)
20.04.2016 14:00 14,8 C 47 % 1027,5 hPa 0,0 l/m 5,0 km/h (1 Bft) S-SW 3,6 C 14,8 C 12,2 km/h (2 Bft)
20.04.2016 15:00 15,4 C 47 % 1027,1 hPa 0,0 l/m 4,7 km/h (1 Bft) S-SW 4,0 C 15,3 C 11,6 km/h (2 Bft)
20.04.2016 16:00 16,1 C 44 % 1026,2 hPa 0,0 l/m 5,2 km/h (1 Bft) NW 3,7 C 16,1 C 14,0 km/h (3 Bft)
20.04.2016 17:00 16,0 C 41 % 1025,7 hPa 0,0 l/m 5,0 km/h (1 Bft) S 2,9 C 16,0 C 12,9 km/h (3 Bft)
20.04.2016 18:00 15,4 C 42 % 1025,4 hPa 0,0 l/m 4,6 km/h (1 Bft) W 2,5 C 15,4 C 11,3 km/h (2 Bft)
20.04.2016 19:00 13,8 C 45 % 1024,9 hPa 0,0 l/m 3,9 km/h (1 Bft) W-NW 2,1 C 13,8 C 11,0 km/h (2 Bft)
20.04.2016 20:00 11,8 C 51 % 1025,3 hPa 0,0 l/m 2,0 km/h (1 Bft) W-SW 2,0 C 11,8 C 4,9 km/h (1 Bft)
20.04.2016 21:00 9,9 C 60 % 1025,6 hPa 0,0 l/m 0,9 km/h (0 Bft) W-SW 2,6 C 9,9 C 2,9 km/h (1 Bft)
20.04.2016 22:00 7,1 C 73 % 1025,7 hPa 0,0 l/m 0,1 km/h (0 Bft) NW 2,6 C 7,1 C 0,8 km/h (0 Bft)
20.04.2016 23:00 4,6 C 83 % 1025,7 hPa 0,0 l/m 0,0 km/h (0 Bft) NW 2,0 C 4,6 C 0,2 km/h (0 Bft)
21.04.2016 00:00 3,5 C 87 % 1025,5 hPa 0,0 l/m 0,0 km/h (0 Bft) NW 1,5 C 3,5 C 0,4 km/h (0 Bft)
21.04.2016 01:00 2,3 C 90 % 1025,2 hPa 0,0 l/m 0,0 km/h (0 Bft) NW 0,8 C 2,3 C 0,0 km/h (0 Bft)
21.04.2016 02:00 1,4 C 92 % 1024,6 hPa 0,0 l/m 0,0 km/h (0 Bft) NW 0,2 C 1,4 C 0,0 km/h (0 Bft)
21.04.2016 03:00 0,9 C 93 % 1024,3 hPa 0,0 l/m 0,0 km/h (0 Bft) NW -0,1 C 0,9 C 0,3 km/h (0 Bft)
21.04.2016 04:00 0,2 C 93 % 1024,1 hPa 0,0 l/m 0,0 km/h (0 Bft) NW -0,7 C 0,2 C 0,1 km/h (0 Bft)
21.04.2016 05:00 -0,4 C 94 % 1024,0 hPa 0,0 l/m 0,0 km/h (0 Bft) NW -1,3 C -0,4 C 0,1 km/h (0 Bft)
21.04.2016 06:00 -0,8 C 95 % 1024,0 hPa 0,0 l/m 0,0 km/h (0 Bft) N -1,5 C -0,8 C 0,2 km/h (0 Bft)
21.04.2016 07:00 -0,2 C 95 % 1024,2 hPa 0,0 l/m 0,1 km/h (0 Bft) N -0,9 C -0,2 C 0,5 km/h (0 Bft)
21.04.2016 08:00 4,6 C 85 % 1024,1 hPa 0,0 l/m 1,0 km/h (0 Bft) NW 2,3 C 4,6 C 1,7 km/h (1 Bft)
21.04.2016 09:00 8,9 C 70 % 1023,6 hPa 0,0 l/m 2,2 km/h (1 Bft) N 3,6 C 8,9 C 5,0 km/h (1 Bft)
21.04.2016 10:00 12,2 C 54 % 1023,5 hPa 0,0 l/m 3,2 km/h (1 Bft) W-NW 3,3 C 12,2 C 8,2 km/h (2 Bft)
21.04.2016 11:00 14,6 C 51 % 1023,2 hPa 0,0 l/m 2,8 km/h (1 Bft) NW 4,5 C 14,6 C 6,9 km/h (2 Bft)
21.04.2016 12:00 16,2 C 48 % 1022,9 hPa 0,0 l/m 3,2 km/h (1 Bft) W-NW 5,3 C 16,2 C 6,9 km/h (2 Bft)
21.04.2016 13:00 17,3 C 47 % 1022,1 hPa 0,0 l/m 3,4 km/h (1 Bft) W-NW 5,8 C 17,3 C 9,0 km/h (2 Bft)
21.04.2016 14:00 18,7 C 40 % 1021,2 hPa 0,0 l/m 3,7 km/h (1 Bft) W-NW 4,6 C 18,7 C 9,0 km/h (2 Bft)
21.04.2016 15:00 19,7 C 34 % 1020,5 hPa 0,0 l/m 3,7 km/h (1 Bft) S-SW 3,4 C 19,7 C 8,1 km/h (2 Bft)
21.04.2016 16:00 20,6 C 30 % 1019,7 hPa 0,0 l/m 3,5 km/h (1 Bft) NW 2,5 C 20,6 C 7,9 km/h (2 Bft)
21.04.2016 17:00 20,3 C 28 % 1019,1 hPa 0,0 l/m 2,5 km/h (1 Bft) W-NW 0,9 C 20,3 C 5,9 km/h (2 Bft)
21.04.2016 18:00 19,4 C 31 % 1018,7 hPa 0,0 l/m 1,1 km/h (1 Bft) SW 1,8 C 19,4 C 3,5 km/h (1 Bft)
21.04.2016 19:00 17,3 C 43 % 1018,1 hPa 0,0 l/m 0,6 km/h (0 Bft) W 4,5 C 17,3 C 1,7 km/h (1 Bft)
21.04.2016 20:00 13,3 C 62 % 1018,1 hPa 0,0 l/m 0,0 km/h (0 Bft) W 6,1 C 13,3 C 0,4 km/h (0 Bft)
21.04.2016 21:00 11,3 C 71 % 1018,3 hPa 0,0 l/m 0,0 km/h (0 Bft) W 6,2 C 11,3 C 0,0 km/h (0 Bft)
21.04.2016 22:00 10,0 C 74 % 1018,5 hPa 0,0 l/m 0,0 km/h (0 Bft) W 5,6 C 10,0 C 0,0 km/h (0 Bft)
21.04.2016 23:00 9,0 C 78 % 1018,5 hPa 0,0 l/m 0,0 km/h (0 Bft) W 5,4 C 9,0 C 0,0 km/h (0 Bft)
22.04.2016 00:00 8,1 C 80 % 1018,5 hPa 0,0 l/m 0,0 km/h (0 Bft) W 4,8 C 8,1 C 0,0 km/h (0 Bft)
22.04.2016 01:00 7,1 C 82 % 1018,3 hPa 0,0 l/m 0,0 km/h (0 Bft) W 4,2 C 7,1 C 0,3 km/h (0 Bft)
22.04.2016 02:00 5,9 C 86 % 1017,9 hPa 0,0 l/m 0,0 km/h (0 Bft) W 3,7 C 5,9 C 0,2 km/h (0 Bft)
22.04.2016 03:00 5,6 C 87 % 1017,6 hPa 0,0 l/m 0,0 km/h (0 Bft) W 3,6 C 5,6 C 0,2 km/h (0 Bft)
22.04.2016 04:00 4,9 C 88 % 1017,3 hPa 0,0 l/m 0,0 km/h (0 Bft) W 3,1 C 4,9 C 0,0 km/h (0 Bft)
22.04.2016 05:00 4,4 C 91 % 1016,8 hPa 0,0 l/m 0,0 km/h (0 Bft) W 3,0 C 4,4 C 0,3 km/h (0 Bft)
22.04.2016 06:00 4,6 C 91 % 1016,8 hPa 0,0 l/m 0,2 km/h (0 Bft) W 3,3 C 4,6 C 1,1 km/h (1 Bft)
22.04.2016 07:00 5,3 C 91 % 1016,9 hPa 0,0 l/m 0,1 km/h (0 Bft) W 3,8 C 5,3 C 0,8 km/h (0 Bft)
22.04.2016 08:00 9,8 C 81 % 1016,7 hPa 0,0 l/m 1,8 km/h (1 Bft) O-NO 6,7 C 9,8 C 3,9 km/h (1 Bft)
22.04.2016 09:00 12,6 C 72 % 1016,5 hPa 0,0 l/m 2,5 km/h (1 Bft) NO 7,7 C 12,6 C 5,6 km/h (2 Bft)
22.04.2016 10:00 14,9 C 60 % 1016,2 hPa 0,0 l/m 4,5 km/h (1 Bft) N-NO 7,2 C 14,9 C 10,1 km/h (2 Bft)
22.04.2016 11:00 16,3 C 54 % 1015,9 hPa 0,0 l/m 3,7 km/h (1 Bft) O-SO 6,9 C 16,3 C 7,8 km/h (2 Bft)
22.04.2016 12:00 16,9 C 47 % 1015,6 hPa 0,0 l/m 2,2 km/h (1 Bft) O-NO 5,5 C 16,9 C 4,9 km/h (1 Bft)
22.04.2016 13:00 17,2 C 41 % 1015,2 hPa 0,0 l/m 2,2 km/h (1 Bft) NW 3,9 C 17,2 C 6,4 km/h (2 Bft)
22.04.2016 14:00 18,4 C 37 % 1014,7 hPa 0,0 l/m 2,3 km/h (1 Bft) S 3,5 C 18,4 C 5,7 km/h (2 Bft)
22.04.2016 15:00 18,8 C 36 % 1014,2 hPa 0,0 l/m 3,1 km/h (1 Bft) S 3,3 C 18,8 C 5,8 km/h (2 Bft)
22.04.2016 16:00 18,2 C 38 % 1013,4 hPa 0,0 l/m 1,8 km/h (1 Bft) O 3,8 C 18,2 C 5,7 km/h (2 Bft)
22.04.2016 17:00 16,5 C 48 % 1012,8 hPa 0,0 l/m 3,0 km/h (1 Bft) NW 5,5 C 16,5 C 6,8 km/h (2 Bft)
22.04.2016 18:00 15,6 C 51 % 1012,6 hPa 0,0 l/m 2,1 km/h (1 Bft) W-NW 5,4 C 15,6 C 4,8 km/h (1 Bft)
22.04.2016 19:00 14,8 C 54 % 1012,2 hPa 0,0 l/m 1,1 km/h (1 Bft) W 5,6 C 14,8 C 2,9 km/h (1 Bft)
22.04.2016 20:00 13,3 C 64 % 1012,1 hPa 0,0 l/m 0,2 km/h (0 Bft) W 6,7 C 13,3 C 0,6 km/h (0 Bft)
22.04.2016 21:00 12,2 C 70 % 1012,1 hPa 0,0 l/m 0,1 km/h (0 Bft) W 6,9 C 12,2 C 0,2 km/h (0 Bft)
22.04.2016 22:00 10,6 C 75 % 1012,0 hPa 0,0 l/m 0,0 km/h (0 Bft) W 6,4 C 10,6 C 0,4 km/h (0 Bft)
22.04.2016 23:00 9,9 C 76 % 1011,8 hPa 0,0 l/m 0,0 km/h (0 Bft) W 5,9 C 9,9 C 0,0 km/h (0 Bft)
23.04.2016 00:00 9,3 C 79 % 1011,8 hPa 0,0 l/m 0,0 km/h (0 Bft) W 5,9 C 9,3 C 0,1 km/h (0 Bft)
23.04.2016 01:00 8,6 C 82 % 1011,2 hPa 0,0 l/m 0,0 km/h (0 Bft) W 5,7 C 8,6 C 0,0 km/h (0 Bft)
23.04.2016 02:00 8,4 C 83 % 1010,5 hPa 0,0 l/m 0,2 km/h (0 Bft) W 5,7 C 8,4 C 0,8 km/h (0 Bft)
23.04.2016 03:00 8,2 C 84 % 1009,9 hPa 0,0 l/m 0,0 km/h (0 Bft) W 5,6 C 8,2 C 0,2 km/h (0 Bft)
23.04.2016 04:00 8,0 C 86 % 1009,0 hPa 0,0 l/m 0,3 km/h (0 Bft) W 5,7 C 8,0 C 1,6 km/h (1 Bft)
23.04.2016 05:00 7,2 C 87 % 1008,4 hPa 0,0 l/m 0,1 km/h (0 Bft) S-SW 5,2 C 7,2 C 0,5 km/h (0 Bft)
23.04.2016 06:00 6,8 C 89 % 1008,0 hPa 0,0 l/m 0,0 km/h (0 Bft) S-SW 5,2 C 6,8 C 0,4 km/h (0 Bft)
23.04.2016 07:00 7,2 C 90 % 1007,7 hPa 0,0 l/m 0,2 km/h (0 Bft) S-SW 5,6 C 7,2 C 0,9 km/h (0 Bft)
23.04.2016 08:00 8,5 C 86 % 1007,4 hPa 0,0 l/m 0,2 km/h (0 Bft) S-SW 6,3 C 8,5 C 1,6 km/h (1 Bft)
23.04.2016 09:00 9,5 C 83 % 1007,1 hPa 0,0 l/m 1,1 km/h (0 Bft) N 6,7 C 9,5 C 2,9 km/h (1 Bft)
23.04.2016 10:00 10,9 C 77 % 1006,7 hPa 0,0 l/m 4,2 km/h (1 Bft) O-NO 7,1 C 10,9 C 10,1 km/h (2 Bft)
23.04.2016 11:00 10,8 C 81 % 1006,5 hPa 0,0 l/m 2,0 km/h (1 Bft) SO 7,6 C 10,8 C 4,7 km/h (1 Bft)
23.04.2016 12:00 10,3 C 85 % 1006,4 hPa 0,5 l/m 1,2 km/h (1 Bft) SO 7,9 C 10,3 C 2,4 km/h (1 Bft)
23.04.2016 13:00 10,2 C 86 % 1006,1 hPa 0,3 l/m 1,1 km/h (1 Bft) S-SO 7,9 C 10,2 C 4,0 km/h (1 Bft)
23.04.2016 14:00 8,1 C 91 % 1006,5 hPa 2,5 l/m 2,0 km/h (1 Bft) O-NO 6,7 C 8,1 C 4,8 km/h (1 Bft)
23.04.2016 15:00 6,6 C 93 % 1007,0 hPa 1,0 l/m 2,0 km/h (1 Bft) O-NO 5,5 C 6,6 C 5,1 km/h (1 Bft)
23.04.2016 16:00 5,5 C 93 % 1007,5 hPa 0,5 l/m 2,2 km/h (1 Bft) NO 4,4 C 5,5 C 5,7 km/h (2 Bft)
23.04.2016 17:00 4,5 C 92 % 1008,4 hPa 0,3 l/m 2,4 km/h (1 Bft) O-NO 3,4 C 4,5 C 6,8 km/h (2 Bft)
23.04.2016 18:00 3,8 C 92 % 1009,2 hPa 0,3 l/m 2,5 km/h (1 Bft) O-NO 2,7 C 3,8 C 5,1 km/h (1 Bft)
23.04.2016 19:00 3,2 C 93 % 1010,1 hPa 0,0 l/m 2,3 km/h (1 Bft) O-NO 2,2 C 3,2 C 4,5 km/h (1 Bft)
23.04.2016 20:00 2,6 C 91 % 1011,4 hPa 0,0 l/m 1,9 km/h (1 Bft) W-NW 1,3 C 2,6 C 3,7 km/h (1 Bft)
23.04.2016 21:00 2,3 C 92 % 1012,4 hPa 0,0 l/m 1,0 km/h (0 Bft) NO 1,1 C 2,3 C 2,3 km/h (1 Bft)
23.04.2016 22:00 2,3 C 92 % 1013,2 hPa 0,0 l/m 1,5 km/h (1 Bft) NO 1,2 C 2,3 C 3,9 km/h (1 Bft)
23.04.2016 23:00 1,5 C 93 % 1013,5 hPa 0,0 l/m 0,3 km/h (0 Bft) O-NO 0,4 C 1,5 C 1,2 km/h (1 Bft)
24.04.2016 00:00 0,5 C 94 % 1013,6 hPa 0,0 l/m 0,0 km/h (0 Bft) O-NO -0,4 C 0,5 C 0,2 km/h (0 Bft)
24.04.2016 01:00 -0,4 C 95 % 1013,6 hPa 0,0 l/m 0,2 km/h (0 Bft) O-NO -1,1 C -0,4 C 1,3 km/h (1 Bft)
24.04.2016 02:00 -0,1 C 96 % 1013,6 hPa 0,0 l/m 0,1 km/h (0 Bft) O-NO -0,6 C -0,1 C 1,3 km/h (1 Bft)
24.04.2016 03:00 0,2 C 96 % 1013,6 hPa 0,0 l/m 0,0 km/h (0 Bft) O-NO -0,3 C 0,2 C 0,3 km/h (0 Bft)
24.04.2016 04:00 0,5 C 96 % 1013,8 hPa 0,0 l/m 0,0 km/h (0 Bft) O-NO -0,1 C 0,5 C 0,3 km/h (0 Bft)
24.04.2016 05:00 0,7 C 96 % 1013,7 hPa 0,0 l/m 0,1 km/h (0 Bft) O-NO 0,1 C 0,7 C 0,5 km/h (0 Bft)
24.04.2016 06:00 0,6 C 96 % 1013,8 hPa 0,0 l/m 0,0 km/h (0 Bft) O-NO 0,1 C 0,6 C 0,5 km/h (0 Bft)
24.04.2016 07:00 0,8 C 96 % 1014,1 hPa 0,0 l/m 0,4 km/h (0 Bft) O-NO 0,3 C 0,8 C 1,5 km/h (1 Bft)
24.04.2016 08:00 2,7 C 85 % 1014,2 hPa 0,0 l/m 1,7 km/h (1 Bft) S 0,5 C 2,7 C 4,1 km/h (1 Bft)
24.04.2016 09:00 3,3 C 79 % 1014,1 hPa 0,0 l/m 3,1 km/h (1 Bft) O-NO 0,0 C 3,3 C 5,5 km/h (2 Bft)
24.04.2016 10:00 4,0 C 69 % 1014,1 hPa 0,0 l/m 4,6 km/h (1 Bft) O-NO -1,2 C 3,8 C 8,9 km/h (2 Bft)
24.04.2016 11:00 4,6 C 61 % 1014,2 hPa 0,0 l/m 5,1 km/h (1 Bft) O-NO -2,4 C 4,0 C 10,1 km/h (2 Bft)
24.04.2016 12:00 5,3 C 54 % 1014,2 hPa 0,0 l/m 6,1 km/h (2 Bft) O -3,2 C 4,7 C 14,5 km/h (3 Bft)
24.04.2016 13:00 5,2 C 59 % 1013,9 hPa 0,0 l/m 4,9 km/h (1 Bft) NO -2,3 C 5,1 C 13,2 km/h (3 Bft)
24.04.2016 14:00 3,7 C 74 % 1013,8 hPa 0,0 l/m 5,8 km/h (2 Bft) O-NO -0,6 C 3,3 C 13,5 km/h (3 Bft)
24.04.2016 15:00 3,5 C 79 % 1013,8 hPa 0,0 l/m 4,6 km/h (1 Bft) O 0,2 C 3,4 C 11,4 km/h (2 Bft)
24.04.2016 16:00 4,8 C 68 % 1013,1 hPa 0,0 l/m 6,8 km/h (2 Bft) O-NO -0,6 C 4,2 C 17,4 km/h (3 Bft)
24.04.2016 17:00 3,4 C 81 % 1013,3 hPa 0,0 l/m 3,8 km/h (1 Bft) O-NO 0,4 C 3,3 C 9,9 km/h (2 Bft)
24.04.2016 18:00 3,1 C 79 % 1013,5 hPa 0,5 l/m 2,6 km/h (1 Bft) O-NO -0,2 C 3,1 C 7,4 km/h (2 Bft)
24.04.2016 19:00 2,0 C 88 % 1013,6 hPa 0,0 l/m 2,9 km/h (1 Bft) O 0,3 C 2,0 C 8,2 km/h (2 Bft)
24.04.2016 20:00 1,5 C 90 % 1013,9 hPa 0,0 l/m 2,1 km/h (1 Bft) O -0,0 C 1,5 C 5,3 km/h (1 Bft)
24.04.2016 21:00 1,3 C 91 % 1014,2 hPa 0,0 l/m 1,3 km/h (1 Bft) NO 0,0 C 1,3 C 3,2 km/h (1 Bft)
24.04.2016 22:00 1,3 C 90 % 1014,4 hPa 0,0 l/m 1,9 km/h (1 Bft) O -0,2 C 1,3 C 5,6 km/h (2 Bft)
24.04.2016 23:00 0,8 C 90 % 1014,3 hPa 0,0 l/m 1,5 km/h (1 Bft) O-NO -0,6 C 0,8 C 4,0 km/h (1 Bft)
Min-Datum _ 20.04.16 21.04.16 23.04.16 - 24.04.16 - 24.04.16 20.04.16 24.04.16
_ Min-Zeit 06:40 17:45 13:35 - 23:57 - 12:10 06:40 21:04
Minimum _ -1,6 C 25 % 1006,0 hPa - 0,0 km/h (0 Bft) - -3,8 C -1,6 C 0,0 km/h (0 Bft)
Max-Datum _ 21.04.16 19.04.16 20.04.16 23.04.16 24.04.16 - 23.04.16 21.04.16 24.04.16
_ Max-Zeit 17:05 09:00 08:15 14:30 11:58 - 13:00 17:05 16:30
Maximum _ 20,8 C 98 % 1028,5 hPa 2,5 l/m 12,9 km/h
O-NO (3 Bft)
- 8,4 C 20,8 C 24,1 km/h
O-NO (4 Bft)
Durchschnitt _ 7,3 C 78 % 1019,0 hPa #10,4 l/m 1,7 km/h (1 Bft) W 3,0 C 7,3 C 4,3 km/h (1 Bft)